sensor_id;sensor_type;location;lat;lon;timestamp;pressure;altitude;pressure_sealevel;temperature;humidity
59608;BME280;45426;44.726;10.390;2023-05-09T00:02:14;100853.50;;;17.88;100.00
59608;BME280;45426;44.726;10.390;2023-05-09T00:04:40;100850.22;;;18.06;100.00
59608;BME280;45426;44.726;10.390;2023-05-09T00:07:05;100850.91;;;18.33;100.00
59608;BME280;45426;44.726;10.390;2023-05-09T00:09:31;100847.66;;;18.20;100.00
59608;BME280;45426;44.726;10.390;2023-05-09T00:11:57;100849.47;;;18.42;100.00
59608;BME280;45426;44.726;10.390;2023-05-09T00:14:22;100852.25;;;18.42;100.00
59608;BME280;45426;44.726;10.390;2023-05-09T00:16:49;100855.13;;;18.23;100.00
59608;BME280;45426;44.726;10.390;2023-05-09T00:19:14;100860.44;;;18.39;100.00
59608;BME280;45426;44.726;10.390;2023-05-09T00:21:40;100851.38;;;18.35;100.00
59608;BME280;45426;44.726;10.390;2023-05-09T00:24:05;100847.28;;;18.25;100.00
59608;BME280;45426;44.726;10.390;2023-05-09T00:26:31;100851.69;;;17.99;100.00
59608;BME280;45426;44.726;10.390;2023-05-09T00:28:56;100845.53;;;18.10;100.00
59608;BME280;45426;44.726;10.390;2023-05-09T00:31:22;100844.75;;;18.09;100.00
59608;BME280;45426;44.726;10.390;2023-05-09T00:33:47;100845.31;;;18.22;100.00
59608;BME280;45426;44.726;10.390;2023-05-09T00:36:13;100841.16;;;18.35;100.00
59608;BME280;45426;44.726;10.390;2023-05-09T00:38:38;100836.19;;;18.48;100.00
59608;BME280;45426;44.726;10.390;2023-05-09T00:41:04;100837.22;;;18.36;100.00
59608;BME280;45426;44.726;10.390;2023-05-09T00:43:29;100832.06;;;18.01;100.00
59608;BME280;45426;44.726;10.390;2023-05-09T00:45:55;100822.22;;;17.70;100.00
59608;BME280;45426;44.726;10.390;2023-05-09T00:48:21;100816.66;;;17.93;100.00
59608;BME280;45426;44.726;10.390;2023-05-09T00:50:46;100824.53;;;17.94;100.00
59608;BME280;45426;44.726;10.390;2023-05-09T00:53:17;100813.13;;;17.92;100.00
59608;BME280;45426;44.726;10.390;2023-05-09T00:55:44;100817.25;;;18.09;100.00
59608;BME280;45426;44.726;10.390;2023-05-09T00:58:10;100813.00;;;18.15;100.00
59608;BME280;45426;44.726;10.390;2023-05-09T01:00:35;100825.59;;;18.16;100.00
59608;BME280;45426;44.726;10.390;2023-05-09T01:03:01;100817.78;;;17.88;100.00
59608;BME280;45426;44.726;10.390;2023-05-09T01:09:01;100807.41;;;18.42;100.00
59608;BME280;45426;44.726;10.390;2023-05-09T01:11:33;100798.13;;;18.54;100.00
59608;BME280;45426;44.726;10.390;2023-05-09T01:16:37;100796.72;;;17.99;100.00
59608;BME280;45426;44.726;10.390;2023-05-09T01:19:26;100807.44;;;17.51;100.00
59608;BME280;45426;44.726;10.390;2023-05-09T01:21:57;100804.84;;;17.65;100.00
59608;BME280;45426;44.726;10.390;2023-05-09T01:27:32;100810.16;;;17.78;100.00
59608;BME280;45426;44.726;10.390;2023-05-09T01:30:02;100809.59;;;17.95;100.00
59608;BME280;45426;44.726;10.390;2023-05-09T01:32:31;100815.84;;;17.12;100.00
59608;BME280;45426;44.726;10.390;2023-05-09T01:35:01;100817.97;;;16.99;100.00
59608;BME280;45426;44.726;10.390;2023-05-09T01:37:31;100811.00;;;17.29;100.00
59608;BME280;45426;44.726;10.390;2023-05-09T01:39:59;100814.31;;;17.15;100.00
59608;BME280;45426;44.726;10.390;2023-05-09T01:42:36;100813.34;;;18.10;100.00
59608;BME280;45426;44.726;10.390;2023-05-09T01:45:03;100815.06;;;18.22;100.00
59608;BME280;45426;44.726;10.390;2023-05-09T01:47:29;100813.38;;;18.14;100.00
59608;BME280;45426;44.726;10.390;2023-05-09T01:49:55;100811.66;;;18.02;100.00
59608;BME280;45426;44.726;10.390;2023-05-09T01:52:22;100804.22;;;18.36;100.00
59608;BME280;45426;44.726;10.390;2023-05-09T01:54:49;100812.88;;;18.38;100.00
59608;BME280;45426;44.726;10.390;2023-05-09T01:57:16;100813.03;;;18.53;100.00
59608;BME280;45426;44.726;10.390;2023-05-09T01:59:46;100814.16;;;17.84;100.00
59608;BME280;45426;44.726;10.390;2023-05-09T02:02:12;100816.59;;;16.66;100.00
59608;BME280;45426;44.726;10.390;2023-05-09T02:04:40;100815.63;;;16.36;100.00
59608;BME280;45426;44.726;10.390;2023-05-09T02:07:08;100816.13;;;17.07;100.00
59608;BME280;45426;44.726;10.390;2023-05-09T02:09:35;100814.88;;;17.51;100.00
59608;BME280;45426;44.726;10.390;2023-05-09T02:12:01;100811.88;;;17.10;100.00
59608;BME280;45426;44.726;10.390;2023-05-09T02:14:29;100808.94;;;16.56;100.00
59608;BME280;45426;44.726;10.390;2023-05-09T02:16:54;100814.50;;;16.60;100.00
59608;BME280;45426;44.726;10.390;2023-05-09T02:19:20;100810.78;;;16.91;100.00
59608;BME280;45426;44.726;10.390;2023-05-09T02:21:45;100813.44;;;17.60;100.00
59608;BME280;45426;44.726;10.390;2023-05-09T02:24:13;100806.97;;;18.02;100.00
59608;BME280;45426;44.726;10.390;2023-05-09T02:26:39;100805.44;;;18.05;100.00
59608;BME280;45426;44.726;10.390;2023-05-09T02:29:06;100807.56;;;18.19;100.00
59608;BME280;45426;44.726;10.390;2023-05-09T02:31:32;100809.56;;;18.22;100.00
59608;BME280;45426;44.726;10.390;2023-05-09T02:34:01;100810.06;;;17.44;100.00
59608;BME280;45426;44.726;10.390;2023-05-09T02:36:28;100807.59;;;17.12;100.00
59608;BME280;45426;44.726;10.390;2023-05-09T02:38:55;100817.13;;;16.14;100.00
59608;BME280;45426;44.726;10.390;2023-05-09T02:41:20;100818.66;;;16.11;100.00
59608;BME280;45426;44.726;10.390;2023-05-09T02:43:46;100793.06;;;16.65;100.00
59608;BME280;45426;44.726;10.390;2023-05-09T02:46:11;100802.00;;;16.20;100.00
59608;BME280;45426;44.726;10.390;2023-05-09T02:48:37;100803.41;;;16.53;100.00
59608;BME280;45426;44.726;10.390;2023-05-09T02:51:02;100794.56;;;16.82;100.00
59608;BME280;45426;44.726;10.390;2023-05-09T02:53:28;100787.00;;;17.52;100.00
59608;BME280;45426;44.726;10.390;2023-05-09T02:55:54;100792.44;;;17.45;100.00
59608;BME280;45426;44.726;10.390;2023-05-09T02:58:19;100792.94;;;16.81;100.00
59608;BME280;45426;44.726;10.390;2023-05-09T03:00:45;100799.94;;;16.56;100.00
59608;BME280;45426;44.726;10.390;2023-05-09T03:03:11;100817.56;;;15.96;100.00
59608;BME280;45426;44.726;10.390;2023-05-09T03:05:36;100821.84;;;15.78;100.00
59608;BME280;45426;44.726;10.390;2023-05-09T03:08:02;100810.63;;;16.41;100.00
59608;BME280;45426;44.726;10.390;2023-05-09T03:10:30;100803.25;;;17.11;100.00
59608;BME280;45426;44.726;10.390;2023-05-09T03:12:55;100798.47;;;17.31;100.00
59608;BME280;45426;44.726;10.390;2023-05-09T03:15:21;100808.16;;;17.48;100.00
59608;BME280;45426;44.726;10.390;2023-05-09T03:17:47;100807.84;;;17.53;100.00
59608;BME280;45426;44.726;10.390;2023-05-09T03:20:12;100806.13;;;17.72;100.00
59608;BME280;45426;44.726;10.390;2023-05-09T03:22:38;100815.94;;;17.73;100.00
59608;BME280;45426;44.726;10.390;2023-05-09T03:25:04;100813.22;;;17.73;100.00
59608;BME280;45426;44.726;10.390;2023-05-09T03:27:30;100825.00;;;17.73;100.00
59608;BME280;45426;44.726;10.390;2023-05-09T03:29:56;100812.03;;;17.20;100.00
59608;BME280;45426;44.726;10.390;2023-05-09T03:32:21;100817.59;;;17.77;100.00
59608;BME280;45426;44.726;10.390;2023-05-09T03:34:47;100812.91;;;17.51;100.00
59608;BME280;45426;44.726;10.390;2023-05-09T03:37:12;100818.19;;;17.63;100.00
59608;BME280;45426;44.726;10.390;2023-05-09T03:39:38;100812.03;;;17.20;100.00
59608;BME280;45426;44.726;10.390;2023-05-09T03:42:04;100805.09;;;17.26;100.00
59608;BME280;45426;44.726;10.390;2023-05-09T03:44:30;100809.69;;;16.96;100.00
59608;BME280;45426;44.726;10.390;2023-05-09T03:46:55;100804.94;;;16.93;100.00
59608;BME280;45426;44.726;10.390;2023-05-09T03:49:21;100804.66;;;16.78;100.00
59608;BME280;45426;44.726;10.390;2023-05-09T03:51:46;100808.03;;;16.91;100.00
59608;BME280;45426;44.726;10.390;2023-05-09T03:54:12;100806.28;;;17.02;100.00
59608;BME280;45426;44.726;10.390;2023-05-09T03:56:37;100807.19;;;16.44;100.00
59608;BME280;45426;44.726;10.390;2023-05-09T03:59:03;100798.09;;;16.40;100.00
59608;BME280;45426;44.726;10.390;2023-05-09T04:01:28;100795.81;;;16.88;100.00
59608;BME280;45426;44.726;10.390;2023-05-09T04:03:54;100793.81;;;17.08;100.00
59608;BME280;45426;44.726;10.390;2023-05-09T04:06:22;100792.91;;;16.58;100.00
59608;BME280;45426;44.726;10.390;2023-05-09T04:08:47;100799.69;;;16.84;100.00
59608;BME280;45426;44.726;10.390;2023-05-09T04:11:13;100792.16;;;16.81;100.00
59608;BME280;45426;44.726;10.390;2023-05-09T04:13:38;100787.09;;;17.29;100.00
59608;BME280;45426;44.726;10.390;2023-05-09T04:16:04;100790.09;;;17.47;100.00
59608;BME280;45426;44.726;10.390;2023-05-09T04:18:29;100789.72;;;17.22;100.00
59608;BME280;45426;44.726;10.390;2023-05-09T04:20:58;100790.16;;;17.51;100.00
59608;BME280;45426;44.726;10.390;2023-05-09T04:23:25;100796.19;;;17.63;100.00
59608;BME280;45426;44.726;10.390;2023-05-09T04:25:51;100796.81;;;17.80;100.00
59608;BME280;45426;44.726;10.390;2023-05-09T04:28:18;100795.78;;;17.88;100.00
59608;BME280;45426;44.726;10.390;2023-05-09T04:30:43;100796.53;;;17.85;100.00
59608;BME280;45426;44.726;10.390;2023-05-09T04:33:09;100797.72;;;17.88;100.00
59608;BME280;45426;44.726;10.390;2023-05-09T04:35:34;100801.91;;;17.78;100.00
59608;BME280;45426;44.726;10.390;2023-05-09T04:38:00;100811.41;;;16.42;100.00
59608;BME280;45426;44.726;10.390;2023-05-09T04:40:25;100813.66;;;15.62;100.00
59608;BME280;45426;44.726;10.390;2023-05-09T04:42:50;100814.44;;;15.62;100.00
59608;BME280;45426;44.726;10.390;2023-05-09T04:45:16;100809.97;;;15.89;100.00
59608;BME280;45426;44.726;10.390;2023-05-09T04:47:42;100816.47;;;15.81;100.00
59608;BME280;45426;44.726;10.390;2023-05-09T04:50:07;100815.25;;;15.98;100.00
59608;BME280;45426;44.726;10.390;2023-05-09T04:52:33;100819.75;;;15.55;100.00
59608;BME280;45426;44.726;10.390;2023-05-09T04:54:58;100811.56;;;16.10;100.00
59608;BME280;45426;44.726;10.390;2023-05-09T04:57:24;100807.41;;;16.78;100.00
59608;BME280;45426;44.726;10.390;2023-05-09T04:59:49;100816.19;;;17.11;100.00
59608;BME280;45426;44.726;10.390;2023-05-09T05:02:17;100825.06;;;16.58;100.00
59608;BME280;45426;44.726;10.390;2023-05-09T05:04:42;100832.19;;;16.23;100.00
59608;BME280;45426;44.726;10.390;2023-05-09T05:07:08;100834.44;;;15.98;100.00
59608;BME280;45426;44.726;10.390;2023-05-09T05:09:33;100833.25;;;15.80;100.00
59608;BME280;45426;44.726;10.390;2023-05-09T05:11:59;100840.34;;;16.00;100.00
59608;BME280;45426;44.726;10.390;2023-05-09T05:14:24;100841.56;;;15.67;100.00
59608;BME280;45426;44.726;10.390;2023-05-09T05:16:50;100836.19;;;16.26;100.00
59608;BME280;45426;44.726;10.390;2023-05-09T05:19:15;100831.03;;;16.63;100.00
59608;BME280;45426;44.726;10.390;2023-05-09T05:21:41;100831.19;;;16.51;100.00
59608;BME280;45426;44.726;10.390;2023-05-09T05:24:06;100826.78;;;16.27;100.00
59608;BME280;45426;44.726;10.390;2023-05-09T05:26:34;100830.78;;;16.29;100.00
59608;BME280;45426;44.726;10.390;2023-05-09T05:28:59;100833.22;;;16.15;100.00
59608;BME280;45426;44.726;10.390;2023-05-09T05:31:25;100839.72;;;16.07;100.00
59608;BME280;45426;44.726;10.390;2023-05-09T05:33:50;100824.34;;;16.61;100.00
59608;BME280;45426;44.726;10.390;2023-05-09T05:36:16;100829.25;;;17.17;100.00
59608;BME280;45426;44.726;10.390;2023-05-09T05:38:42;100828.16;;;16.99;100.00
59608;BME280;45426;44.726;10.390;2023-05-09T05:41:07;100834.91;;;16.82;100.00
59608;BME280;45426;44.726;10.390;2023-05-09T05:43:35;100837.06;;;17.15;100.00
59608;BME280;45426;44.726;10.390;2023-05-09T05:46:01;100836.16;;;17.31;100.00
59608;BME280;45426;44.726;10.390;2023-05-09T05:48:26;100829.94;;;16.68;100.00
59608;BME280;45426;44.726;10.390;2023-05-09T05:50:52;100826.81;;;17.12;100.00
59608;BME280;45426;44.726;10.390;2023-05-09T05:53:17;100827.06;;;18.10;100.00
59608;BME280;45426;44.726;10.390;2023-05-09T05:55:43;100826.50;;;17.97;100.00
59608;BME280;45426;44.726;10.390;2023-05-09T05:58:10;100824.31;;;18.10;100.00
59608;BME280;45426;44.726;10.390;2023-05-09T06:00:35;100823.72;;;18.24;100.00
59608;BME280;45426;44.726;10.390;2023-05-09T06:03:01;100819.13;;;17.75;100.00
59608;BME280;45426;44.726;10.390;2023-05-09T06:05:26;100824.94;;;17.96;100.00
59608;BME280;45426;44.726;10.390;2023-05-09T06:07:52;100818.72;;;18.33;100.00
59608;BME280;45426;44.726;10.390;2023-05-09T06:10:17;100819.28;;;18.84;100.00
59608;BME280;45426;44.726;10.390;2023-05-09T06:12:43;100814.25;;;18.93;100.00
59608;BME280;45426;44.726;10.390;2023-05-09T06:15:08;100806.28;;;19.29;100.00
59608;BME280;45426;44.726;10.390;2023-05-09T06:17:37;100811.91;;;19.47;100.00
59608;BME280;45426;44.726;10.390;2023-05-09T06:20:03;100817.06;;;19.52;100.00
59608;BME280;45426;44.726;10.390;2023-05-09T06:22:28;100813.72;;;19.25;100.00
59608;BME280;45426;44.726;10.390;2023-05-09T06:24:54;100807.66;;;19.56;100.00
59608;BME280;45426;44.726;10.390;2023-05-09T06:27:20;100815.88;;;18.26;100.00
59608;BME280;45426;44.726;10.390;2023-05-09T06:29:45;100813.34;;;17.53;100.00
59608;BME280;45426;44.726;10.390;2023-05-09T06:32:11;100803.38;;;18.32;100.00
59608;BME280;45426;44.726;10.390;2023-05-09T06:34:36;100809.19;;;17.93;100.00
59608;BME280;45426;44.726;10.390;2023-05-09T06:37:01;100807.75;;;18.03;100.00
59608;BME280;45426;44.726;10.390;2023-05-09T06:39:27;100811.91;;;18.20;100.00
59608;BME280;45426;44.726;10.390;2023-05-09T06:41:52;100797.38;;;18.23;100.00
59608;BME280;45426;44.726;10.390;2023-05-09T06:44:18;100794.09;;;18.48;100.00
59608;BME280;45426;44.726;10.390;2023-05-09T06:46:46;100805.78;;;17.73;100.00
59608;BME280;45426;44.726;10.390;2023-05-09T06:49:12;100802.03;;;17.85;100.00
59608;BME280;45426;44.726;10.390;2023-05-09T06:51:38;100789.66;;;18.36;100.00
59608;BME280;45426;44.726;10.390;2023-05-09T06:54:03;100789.91;;;18.20;100.00
59608;BME280;45426;44.726;10.390;2023-05-09T06:56:29;100803.97;;;18.15;100.00
59608;BME280;45426;44.726;10.390;2023-05-09T06:58:57;100795.31;;;18.13;100.00
59608;BME280;45426;44.726;10.390;2023-05-09T07:01:23;100800.75;;;18.43;100.00
59608;BME280;45426;44.726;10.390;2023-05-09T07:03:48;100795.91;;;18.29;100.00
59608;BME280;45426;44.726;10.390;2023-05-09T07:06:14;100794.03;;;19.26;100.00
59608;BME280;45426;44.726;10.390;2023-05-09T07:08:39;100800.47;;;19.45;100.00
59608;BME280;45426;44.726;10.390;2023-05-09T07:11:05;100788.56;;;19.30;100.00
59608;BME280;45426;44.726;10.390;2023-05-09T07:13:32;100795.72;;;19.38;100.00
59608;BME280;45426;44.726;10.390;2023-05-09T07:15:57;100788.28;;;18.94;100.00
59608;BME280;45426;44.726;10.390;2023-05-09T07:18:23;100785.56;;;19.49;100.00
59608;BME280;45426;44.726;10.390;2023-05-09T07:20:48;100783.78;;;19.82;100.00
59608;BME280;45426;44.726;10.390;2023-05-09T07:23:14;100783.53;;;18.91;100.00
59608;BME280;45426;44.726;10.390;2023-05-09T07:25:39;100785.00;;;19.95;100.00
59608;BME280;45426;44.726;10.390;2023-05-09T07:28:05;100786.28;;;18.91;100.00
59608;BME280;45426;44.726;10.390;2023-05-09T07:30:30;100801.50;;;19.77;100.00
59608;BME280;45426;44.726;10.390;2023-05-09T07:32:56;100801.06;;;19.16;100.00
59608;BME280;45426;44.726;10.390;2023-05-09T07:35:21;100805.69;;;20.45;100.00
59608;BME280;45426;44.726;10.390;2023-05-09T07:37:47;100805.38;;;21.50;100.00
59608;BME280;45426;44.726;10.390;2023-05-09T07:40:13;100797.94;;;22.43;100.00
59608;BME280;45426;44.726;10.390;2023-05-09T07:42:38;100799.84;;;21.14;100.00
59608;BME280;45426;44.726;10.390;2023-05-09T07:45:04;100800.25;;;21.35;100.00
59608;BME280;45426;44.726;10.390;2023-05-09T07:47:31;100797.47;;;20.66;100.00
59608;BME280;45426;44.726;10.390;2023-05-09T07:49:56;100795.25;;;22.28;100.00
59608;BME280;45426;44.726;10.390;2023-05-09T07:52:25;100791.00;;;22.76;100.00
59608;BME280;45426;44.726;10.390;2023-05-09T07:54:50;100788.00;;;22.49;100.00
59608;BME280;45426;44.726;10.390;2023-05-09T07:57:16;100783.75;;;22.93;100.00
59608;BME280;45426;44.726;10.390;2023-05-09T07:59:42;100786.72;;;21.83;100.00
59608;BME280;45426;44.726;10.390;2023-05-09T08:02:07;100789.09;;;20.30;100.00
59608;BME280;45426;44.726;10.390;2023-05-09T08:04:33;100796.31;;;21.14;100.00
59608;BME280;45426;44.726;10.390;2023-05-09T08:07:02;100782.50;;;21.25;100.00
59608;BME280;45426;44.726;10.390;2023-05-09T08:09:28;100795.06;;;21.69;100.00
59608;BME280;45426;44.726;10.390;2023-05-09T08:11:54;100791.53;;;21.65;100.00
59608;BME280;45426;44.726;10.390;2023-05-09T08:14:19;100786.63;;;19.30;100.00
59608;BME280;45426;44.726;10.390;2023-05-09T08:16:45;100779.75;;;20.74;100.00
59608;BME280;45426;44.726;10.390;2023-05-09T08:19:10;100772.75;;;22.12;100.00
59608;BME280;45426;44.726;10.390;2023-05-09T08:21:36;100773.81;;;20.80;100.00
59608;BME280;45426;44.726;10.390;2023-05-09T08:24:01;100763.88;;;22.98;100.00
59608;BME280;45426;44.726;10.390;2023-05-09T08:26:27;100766.13;;;22.69;100.00
59608;BME280;45426;44.726;10.390;2023-05-09T08:28:52;100753.78;;;22.77;100.00
59608;BME280;45426;44.726;10.390;2023-05-09T08:31:18;100763.47;;;23.00;100.00
59608;BME280;45426;44.726;10.390;2023-05-09T08:33:44;100753.41;;;22.12;100.00
59608;BME280;45426;44.726;10.390;2023-05-09T08:36:12;100751.47;;;22.05;100.00
59608;BME280;45426;44.726;10.390;2023-05-09T08:38:37;100746.53;;;21.46;100.00
59608;BME280;45426;44.726;10.390;2023-05-09T08:41:04;100750.38;;;21.81;100.00
59608;BME280;45426;44.726;10.390;2023-05-09T08:43:32;100739.59;;;23.17;100.00
59608;BME280;45426;44.726;10.390;2023-05-09T08:45:59;100744.81;;;23.11;100.00
59608;BME280;45426;44.726;10.390;2023-05-09T08:48:27;100755.41;;;22.04;100.00
59608;BME280;45426;44.726;10.390;2023-05-09T08:50:54;100755.53;;;23.47;100.00
59608;BME280;45426;44.726;10.390;2023-05-09T08:53:21;100755.63;;;22.91;100.00
59608;BME280;45426;44.726;10.390;2023-05-09T08:55:48;100762.38;;;20.67;100.00
59608;BME280;45426;44.726;10.390;2023-05-09T08:58:14;100752.97;;;22.80;100.00
59608;BME280;45426;44.726;10.390;2023-05-09T09:00:40;100756.63;;;22.03;100.00
59608;BME280;45426;44.726;10.390;2023-05-09T09:03:06;100767.03;;;21.67;100.00
59608;BME280;45426;44.726;10.390;2023-05-09T09:05:36;100762.63;;;21.84;100.00
59608;BME280;45426;44.726;10.390;2023-05-09T09:08:03;100761.31;;;22.10;100.00
59608;BME280;45426;44.726;10.390;2023-05-09T09:10:31;100755.66;;;21.00;100.00
59608;BME280;45426;44.726;10.390;2023-05-09T09:12:58;100748.34;;;21.96;100.00
59608;BME280;45426;44.726;10.390;2023-05-09T09:15:27;100736.72;;;22.82;100.00
59608;BME280;45426;44.726;10.390;2023-05-09T09:17:54;100743.72;;;21.68;100.00
59608;BME280;45426;44.726;10.390;2023-05-09T09:20:25;100748.97;;;20.83;100.00
59608;BME280;45426;44.726;10.390;2023-05-09T09:22:57;100728.63;;;22.57;100.00
59608;BME280;45426;44.726;10.390;2023-05-09T09:25:25;100731.31;;;23.13;100.00
59608;BME280;45426;44.726;10.390;2023-05-09T09:27:50;100736.75;;;22.26;100.00
59608;BME280;45426;44.726;10.390;2023-05-09T09:30:21;100735.09;;;21.44;100.00
59608;BME280;45426;44.726;10.390;2023-05-09T09:32:47;100723.53;;;23.39;100.00
59608;BME280;45426;44.726;10.390;2023-05-09T09:35:13;100722.50;;;22.24;100.00
59608;BME280;45426;44.726;10.390;2023-05-09T09:37:39;100705.22;;;23.11;100.00
59608;BME280;45426;44.726;10.390;2023-05-09T09:40:06;100700.31;;;23.25;100.00
59608;BME280;45426;44.726;10.390;2023-05-09T09:42:47;100702.06;;;23.12;100.00
59608;BME280;45426;44.726;10.390;2023-05-09T09:45:15;100693.81;;;23.39;100.00
59608;BME280;45426;44.726;10.390;2023-05-09T09:47:45;100688.78;;;23.96;100.00
59608;BME280;45426;44.726;10.390;2023-05-09T09:50:16;100689.03;;;24.59;100.00
59608;BME280;45426;44.726;10.390;2023-05-09T09:52:49;100696.25;;;23.34;100.00
59608;BME280;45426;44.726;10.390;2023-05-09T09:55:18;100693.53;;;22.88;100.00
59608;BME280;45426;44.726;10.390;2023-05-09T09:57:44;100693.53;;;23.64;100.00
59608;BME280;45426;44.726;10.390;2023-05-09T10:00:12;100689.00;;;22.67;100.00
59608;BME280;45426;44.726;10.390;2023-05-09T10:05:28;100688.47;;;23.25;100.00
59608;BME280;45426;44.726;10.390;2023-05-09T10:07:58;100689.56;;;22.93;100.00
59608;BME280;45426;44.726;10.390;2023-05-09T10:10:34;100684.34;;;22.99;100.00
59608;BME280;45426;44.726;10.390;2023-05-09T10:13:04;100690.66;;;23.41;100.00
59608;BME280;45426;44.726;10.390;2023-05-09T10:15:31;100690.94;;;22.71;100.00
59608;BME280;45426;44.726;10.390;2023-05-09T10:17:58;100691.75;;;22.12;100.00
59608;BME280;45426;44.726;10.390;2023-05-09T10:20:26;100687.44;;;22.63;100.00
59608;BME280;45426;44.726;10.390;2023-05-09T10:23:01;100681.66;;;23.30;100.00
59608;BME280;45426;44.726;10.390;2023-05-09T10:25:31;100684.00;;;22.48;100.00
59608;BME280;45426;44.726;10.390;2023-05-09T10:28:02;100682.75;;;22.56;100.00
59608;BME280;45426;44.726;10.390;2023-05-09T10:33:46;100661.06;;;24.47;100.00
59608;BME280;45426;44.726;10.390;2023-05-09T10:36:15;100664.31;;;24.41;100.00
59608;BME280;45426;44.726;10.390;2023-05-09T10:38:42;100668.97;;;22.91;100.00
59608;BME280;45426;44.726;10.390;2023-05-09T10:41:09;100661.94;;;23.24;100.00
59608;BME280;45426;44.726;10.390;2023-05-09T10:43:35;100652.19;;;24.05;100.00
59608;BME280;45426;44.726;10.390;2023-05-09T10:46:02;100655.13;;;24.92;100.00
59608;BME280;45426;44.726;10.390;2023-05-09T10:48:30;100648.38;;;23.95;100.00
59608;BME280;45426;44.726;10.390;2023-05-09T10:50:56;100648.88;;;24.88;100.00
59608;BME280;45426;44.726;10.390;2023-05-09T10:56:05;100635.47;;;23.50;100.00
59608;BME280;45426;44.726;10.390;2023-05-09T10:58:32;100633.34;;;23.92;100.00
59608;BME280;45426;44.726;10.390;2023-05-09T11:00:59;100628.16;;;24.69;100.00
59608;BME280;45426;44.726;10.390;2023-05-09T11:03:51;100626.22;;;24.18;100.00
59608;BME280;45426;44.726;10.390;2023-05-09T11:09:34;100616.13;;;24.05;100.00
59608;BME280;45426;44.726;10.390;2023-05-09T11:12:10;100619.28;;;24.30;100.00
59608;BME280;45426;44.726;10.390;2023-05-09T11:17:03;100623.16;;;23.55;100.00
59608;BME280;45426;44.726;10.390;2023-05-09T11:22:22;100607.56;;;25.30;100.00
59608;BME280;45426;44.726;10.390;2023-05-09T11:24:59;100606.69;;;23.40;100.00
59608;BME280;45426;44.726;10.390;2023-05-09T11:27:27;100606.88;;;25.22;100.00
59608;BME280;45426;44.726;10.390;2023-05-09T11:29:57;100592.03;;;24.69;100.00
59608;BME280;45426;44.726;10.390;2023-05-09T11:32:34;100598.66;;;24.55;100.00
59608;BME280;45426;44.726;10.390;2023-05-09T11:35:09;100589.38;;;25.25;100.00
59608;BME280;45426;44.726;10.390;2023-05-09T11:40:13;100578.94;;;25.66;100.00
59608;BME280;45426;44.726;10.390;2023-05-09T11:42:47;100579.38;;;25.64;100.00
59608;BME280;45426;44.726;10.390;2023-05-09T11:45:14;100584.88;;;25.84;100.00
59608;BME280;45426;44.726;10.390;2023-05-09T11:47:44;100585.28;;;23.99;100.00
59608;BME280;45426;44.726;10.390;2023-05-09T11:50:11;100570.88;;;24.55;100.00
59608;BME280;45426;44.726;10.390;2023-05-09T11:52:38;100568.25;;;24.68;100.00
59608;BME280;45426;44.726;10.390;2023-05-09T11:55:09;100564.75;;;23.38;100.00
59608;BME280;45426;44.726;10.390;2023-05-09T11:57:39;100550.75;;;24.47;100.00
59608;BME280;45426;44.726;10.390;2023-05-09T12:00:05;100557.78;;;24.08;100.00
59608;BME280;45426;44.726;10.390;2023-05-09T12:02:32;100546.66;;;24.55;100.00
59608;BME280;45426;44.726;10.390;2023-05-09T12:05:14;100548.25;;;25.53;100.00
59608;BME280;45426;44.726;10.390;2023-05-09T12:07:41;100549.69;;;24.41;100.00
59608;BME280;45426;44.726;10.390;2023-05-09T12:10:17;100541.84;;;24.12;100.00
59608;BME280;45426;44.726;10.390;2023-05-09T12:12:48;100534.53;;;23.17;100.00
59608;BME280;45426;44.726;10.390;2023-05-09T12:15:14;100532.66;;;24.83;100.00
59608;BME280;45426;44.726;10.390;2023-05-09T12:17:41;100521.88;;;24.45;100.00
59608;BME280;45426;44.726;10.390;2023-05-09T12:20:07;100518.25;;;24.68;100.00
59608;BME280;45426;44.726;10.390;2023-05-09T12:22:33;100510.69;;;25.08;100.00
59608;BME280;45426;44.726;10.390;2023-05-09T12:25:03;100511.03;;;25.47;100.00
59608;BME280;45426;44.726;10.390;2023-05-09T12:27:30;100504.38;;;25.61;100.00
59608;BME280;45426;44.726;10.390;2023-05-09T12:29:57;100506.50;;;24.80;100.00
59608;BME280;45426;44.726;10.390;2023-05-09T12:32:24;100499.31;;;25.39;100.00
59608;BME280;45426;44.726;10.390;2023-05-09T12:34:56;100495.06;;;25.14;100.00
59608;BME280;45426;44.726;10.390;2023-05-09T12:37:22;100502.19;;;25.15;100.00
59608;BME280;45426;44.726;10.390;2023-05-09T12:40:12;100490.63;;;23.93;100.00
59608;BME280;45426;44.726;10.390;2023-05-09T12:42:43;100494.81;;;23.54;100.00
59608;BME280;45426;44.726;10.390;2023-05-09T12:45:12;100487.81;;;23.70;100.00
59608;BME280;45426;44.726;10.390;2023-05-09T12:47:38;100482.25;;;23.97;100.00
59608;BME280;45426;44.726;10.390;2023-05-09T12:50:06;100483.78;;;25.22;100.00
59608;BME280;45426;44.726;10.390;2023-05-09T12:52:37;100482.38;;;25.13;100.00
59608;BME280;45426;44.726;10.390;2023-05-09T12:55:12;100482.88;;;23.30;100.00
59608;BME280;45426;44.726;10.390;2023-05-09T12:57:38;100470.91;;;24.55;100.00
59608;BME280;45426;44.726;10.390;2023-05-09T13:00:08;100470.56;;;24.09;100.00